Time;durP1;ratioP1;P1;durP2;ratioP2;P2;SDS_P1;SDS_P2;PMS_P1;PMS_P2;Temp;Humidity;BMP_temperature;BMP_pressure;BME280_temperature;BME280_humidity;BME280_pressure;Samples;Min_cycle;Max_cycle;Signal;HPM_P1;HPM_P2
2022/04/22 00:01:36;;;;;;;5.10;3.38;;;16.70;61.60;;;;;;5033004;28;20083;-69
2022/04/22 00:04:03;;;;;;;8.15;4.15;;;16.80;61.50;;;;;;5043509;28;20036;-70
2022/04/22 00:06:29;;;;;;;9.52;3.28;;;16.70;61.30;;;;;;5036390;28;20040;-69
2022/04/22 00:08:55;;;;;;;7.63;3.70;;;16.60;61.50;;;;;;5048878;28;20025;-63
2022/04/22 00:11:29;;;;;;;3.97;3.40;;;16.50;61.90;;;;;;5037676;28;20798;-67
2022/04/22 00:14:03;;;;;;;4.85;3.17;;;16.50;61.80;;;;;;5041609;28;20021;-69
2022/04/22 00:16:30;;;;;;;6.47;3.20;;;16.50;61.60;;;;;;5043421;28;20534;-69
2022/04/22 00:18:56;;;;;;;5.15;3.47;;;16.40;61.80;;;;;;5048428;28;20023;-66
2022/04/22 00:21:22;;;;;;;6.78;3.40;;;16.20;62.30;;;;;;5037627;28;20024;-68
2022/04/22 00:23:49;;;;;;;4.80;3.42;;;16.20;62.60;;;;;;5042506;28;20092;-69
2022/04/22 00:26:18;;;;;;;7.30;4.20;;;16.20;62.70;;;;;;5042738;28;20045;-68
2022/04/22 00:28:44;;;;;;;4.75;3.42;;;16.10;63.50;;;;;;5048593;28;20104;-62
2022/04/22 00:31:09;;;;;;;3.97;3.15;;;16.20;62.60;;;;;;5035822;28;20109;-61
2022/04/22 00:33:35;;;;;;;4.80;3.35;;;16.20;62.50;;;;;;5044061;28;20057;-63
2022/04/22 00:36:01;;;;;;;6.00;3.33;;;16.30;62.40;;;;;;5043296;28;20106;-62
2022/04/22 00:38:27;;;;;;;6.60;3.22;;;16.20;62.60;;;;;;5034805;28;20024;-69
2022/04/22 00:40:55;;;;;;;9.77;3.47;;;16.00;63.00;;;;;;5047640;28;20654;-67
2022/04/22 00:43:23;;;;;;;6.35;3.45;;;16.10;63.20;;;;;;5038144;28;20027;-68
2022/04/22 00:45:50;;;;;;;5.45;3.55;;;16.10;63.20;;;;;;5041309;28;20030;-63
2022/04/22 00:48:17;;;;;;;5.43;4.07;;;16.20;63.20;;;;;;5032456;28;20605;-65
2022/04/22 00:50:44;;;;;;;7.25;3.70;;;16.10;63.50;;;;;;5047614;28;20025;-70
2022/04/22 00:53:11;;;;;;;8.68;4.82;;;16.10;63.40;;;;;;5036545;28;20082;-69
2022/04/22 00:55:39;;;;;;;5.95;4.00;;;16.00;63.60;;;;;;5044526;28;20475;-65
2022/04/22 00:58:06;;;;;;;6.30;3.60;;;16.00;63.80;;;;;;5032247;28;20036;-70
2022/04/22 01:00:32;;;;;;;4.65;3.78;;;15.90;64.10;;;;;;5032392;28;20071;-67
2022/04/22 01:02:58;;;;;;;4.85;4.00;;;15.90;64.30;;;;;;5032529;28;20022;-67
2022/04/22 01:10:55;;;;;;;8.35;4.72;;;16.00;64.20;;;;;;5051493;28;20036;-67
2022/04/22 01:13:21;;;;;;;4.53;3.92;;;15.80;64.80;;;;;;5045718;28;20022;-68
2022/04/22 01:15:47;;;;;;;5.55;4.05;;;15.90;64.80;;;;;;5032332;28;20383;-70
2022/04/22 01:18:14;;;;;;;5.65;4.18;;;15.90;64.80;;;;;;5031270;28;20021;-70
2022/04/22 01:20:40;;;;;;;5.85;4.47;;;15.90;64.90;;;;;;5032310;28;20021;-70
2022/04/22 01:23:05;;;;;;;6.68;4.97;;;15.80;65.40;;;;;;5031835;28;20037;-60
2022/04/22 01:25:31;;;;;;;7.85;5.22;;;15.80;65.30;;;;;;5028645;28;20042;-69
2022/04/22 01:27:57;;;;;;;10.05;5.40;;;15.80;65.30;;;;;;5024542;28;20030;-70
2022/04/22 01:30:23;;;;;;;5.63;5.00;;;15.80;65.50;;;;;;5023401;28;20030;-69
2022/04/22 01:32:56;;;;;;;6.90;5.03;;;15.80;65.50;;;;;;5030983;28;20021;-68
2022/04/22 01:35:24;;;;;;;9.55;5.18;;;15.80;65.50;;;;;;5035807;28;20553;-68
2022/04/22 01:37:50;;;;;;;6.22;5.05;;;15.70;66.10;;;;;;5035795;28;20551;-70
2022/04/22 01:40:16;;;;;;;6.40;5.13;;;15.60;66.40;;;;;;5035618;28;20057;-70
2022/04/22 01:42:42;;;;;;;9.52;6.07;;;15.60;67.30;;;;;;5035970;28;20053;-64
2022/04/22 01:45:09;;;;;;;8.73;5.97;;;15.70;66.30;;;;;;5035697;28;20060;-68
2022/04/22 01:47:35;;;;;;;7.22;5.35;;;15.60;66.60;;;;;;5035738;28;20029;-70
2022/04/22 01:50:02;;;;;;;8.05;5.88;;;15.70;66.50;;;;;;5035506;28;20528;-69
2022/04/22 01:52:29;;;;;;;9.40;5.88;;;15.90;66.10;;;;;;5035744;28;20032;-62
2022/04/22 01:54:55;;;;;;;8.00;5.75;;;15.90;66.00;;;;;;5035768;28;20474;-70
2022/04/22 01:57:21;;;;;;;6.53;5.55;;;15.80;66.60;;;;;;5034960;28;20030;-70
2022/04/22 01:59:48;;;;;;;8.25;5.93;;;15.70;66.80;;;;;;5035560;28;20040;-70
2022/04/22 02:02:17;;;;;;;9.38;5.82;;;15.70;66.60;;;;;;5035473;28;20032;-70
2022/04/22 02:04:43;;;;;;;8.80;6.45;;;15.80;66.60;;;;;;5035549;28;20458;-70
2022/04/22 02:07:09;;;;;;;6.60;5.60;;;15.60;67.10;;;;;;5034835;28;20506;-64
2022/04/22 02:09:35;;;;;;;7.15;6.18;;;15.50;67.30;;;;;;5035532;28;20467;-70
2022/04/22 02:12:01;;;;;;;7.63;6.30;;;15.50;67.70;;;;;;5035532;28;20030;-69
2022/04/22 02:14:27;;;;;;;9.65;6.78;;;15.50;67.70;;;;;;5034993;28;20029;-70
2022/04/22 02:16:53;;;;;;;7.82;6.65;;;15.60;67.50;;;;;;5034828;28;20569;-69
2022/04/22 02:19:19;;;;;;;7.50;6.68;;;15.60;67.60;;;;;;5035292;28;20017;-70
2022/04/22 02:21:45;;;;;;;7.03;6.00;;;15.50;67.60;;;;;;5035072;28;20057;-70
2022/04/22 02:24:11;;;;;;;7.55;6.00;;;15.50;68.00;;;;;;5035251;28;20037;-60
2022/04/22 02:29:22;;;;;;;8.05;6.85;;;15.50;68.20;;;;;;5034630;28;20366;-70
2022/04/22 02:31:48;;;;;;;8.40;7.10;;;15.50;68.30;;;;;;5034969;28;20037;-70
2022/04/22 02:34:14;;;;;;;9.07;6.82;;;15.30;68.70;;;;;;5035000;28;20018;-69
2022/04/22 02:36:42;;;;;;;8.68;7.10;;;15.40;68.60;;;;;;5034773;28;20035;-59
2022/04/22 02:39:08;;;;;;;14.05;7.85;;;15.20;69.20;;;;;;5015010;28;20467;-69
2022/04/22 02:47:03;;;;;;;8.95;7.55;;;15.20;69.60;;;;;;5016105;28;20049;-71
2022/04/22 02:49:29;;;;;;;8.32;7.53;;;15.40;69.40;;;;;;5034591;28;20022;-69
2022/04/22 02:51:55;;;;;;;9.45;7.05;;;15.30;69.60;;;;;;5034483;28;20067;-70
2022/04/22 02:54:20;;;;;;;10.27;8.15;;;15.40;69.50;;;;;;5034304;28;20036;-66
2022/04/22 02:56:46;;;;;;;9.18;8.15;;;15.40;69.40;;;;;;5034061;28;20034;-70
2022/04/22 02:59:12;;;;;;;8.40;7.60;;;15.10;70.10;;;;;;5033833;28;20390;-71
2022/04/22 03:01:38;;;;;;;8.85;7.95;;;15.20;70.10;;;;;;5034714;28;20481;-70
2022/04/22 03:04:04;;;;;;;9.40;8.50;;;15.20;70.40;;;;;;5034400;28;20021;-70
2022/04/22 03:06:29;;;;;;;9.38;8.25;;;15.00;71.30;;;;;;5034449;28;20037;-70
2022/04/22 03:08:55;;;;;;;9.68;8.70;;;15.10;70.60;;;;;;5033922;28;20490;-70
2022/04/22 03:11:21;;;;;;;8.60;7.82;;;15.10;70.50;;;;;;5034010;28;20498;-70
2022/04/22 03:13:51;;;;;;;9.70;8.68;;;15.20;70.50;;;;;;5034153;28;20022;-71
2022/04/22 03:16:24;;;;;;;9.18;8.27;;;15.10;70.80;;;;;;5034235;28;20074;-68
2022/04/22 03:18:50;;;;;;;9.73;8.73;;;15.20;70.90;;;;;;5033926;28;20025;-70
2022/04/22 03:21:16;;;;;;;10.52;8.95;;;15.10;71.10;;;;;;5033348;28;20152;-68
2022/04/22 03:23:42;;;;;;;10.30;9.30;;;15.00;71.40;;;;;;5034050;28;20092;-69
2022/04/22 03:26:07;;;;;;;11.32;9.45;;;15.10;71.10;;;;;;5033562;28;20141;-63
2022/04/22 03:28:33;;;;;;;9.80;8.80;;;14.90;71.90;;;;;;5033970;28;20061;-68
2022/04/22 03:30:59;;;;;;;11.80;9.15;;;14.70;72.60;;;;;;5033511;28;20072;-68
2022/04/22 03:33:24;;;;;;;9.65;8.68;;;14.80;72.70;;;;;;5033826;28;20065;-61
2022/04/22 03:35:50;;;;;;;9.80;8.80;;;14.70;72.60;;;;;;5033705;28;20050;-67
2022/04/22 03:38:20;;;;;;;10.52;9.43;;;14.70;72.90;;;;;;5033473;28;20097;-69
2022/04/22 03:40:50;;;;;;;10.27;9.10;;;14.70;73.10;;;;;;5033303;28;20095;-69
2022/04/22 03:43:17;;;;;;;10.10;9.07;;;14.80;72.90;;;;;;5033809;28;20108;-70
2022/04/22 03:45:43;;;;;;;10.90;9.75;;;14.80;72.90;;;;;;5033349;28;20083;-69
2022/04/22 03:48:10;;;;;;;10.38;9.38;;;14.80;72.70;;;;;;5033755;28;20025;-69
2022/04/22 03:50:36;;;;;;;10.27;9.10;;;14.80;73.10;;;;;;5028868;28;20031;-70
2022/04/22 03:53:06;;;;;;;11.27;10.00;;;14.90;72.70;;;;;;5013628;28;20549;-64
2022/04/22 03:55:32;;;;;;;11.02;9.93;;;14.90;73.00;;;;;;5030676;28;20029;-71
2022/04/22 03:58:13;;;;;;;12.45;8.95;;;14.90;73.00;;;;;;5033142;28;20549;-62
2022/04/22 04:00:41;;;;;;;9.60;8.38;;;14.90;73.70;;;;;;5032840;28;20032;-70
2022/04/22 04:03:12;;;;;;;14.73;8.98;;;14.90;72.80;;;;;;5033165;28;20060;-70
2022/04/22 04:05:39;;;;;;;11.98;9.32;;;14.90;72.50;;;;;;5032517;28;20094;-71
2022/04/22 04:08:05;;;;;;;9.13;8.02;;;14.70;73.10;;;;;;5033148;28;20021;-71
2022/04/22 04:16:01;;;;;;;11.35;7.93;;;14.80;73.20;;;;;;5032690;28;20448;-71
2022/04/22 04:18:31;;;;;;;8.73;7.93;;;14.70;73.50;;;;;;5033444;28;20017;-64
2022/04/22 04:23:42;;;;;;;11.00;7.95;;;14.70;74.40;;;;;;5032879;28;20041;-71
2022/04/22 04:26:09;;;;;;;9.85;7.88;;;14.80;73.50;;;;;;5031982;28;20037;-72
2022/04/22 04:28:36;;;;;;;9.05;7.80;;;14.80;73.60;;;;;;5033038;28;20367;-71
2022/04/22 04:31:02;;;;;;;8.93;8.07;;;14.60;74.20;;;;;;5032888;28;20425;-61
2022/04/22 04:33:29;;;;;;;8.40;7.63;;;14.50;75.30;;;;;;5033002;28;20026;-71
2022/04/22 04:35:55;;;;;;;8.85;7.13;;;14.50;74.90;;;;;;5032397;28;20082;-71
2022/04/22 04:38:21;;;;;;;10.73;7.85;;;14.60;74.50;;;;;;5032675;28;20026;-71
2022/04/22 04:40:47;;;;;;;11.25;8.23;;;14.60;74.50;;;;;;5032662;28;20447;-71
2022/04/22 04:43:13;;;;;;;9.30;8.30;;;14.60;74.40;;;;;;5033039;28;20052;-60
2022/04/22 04:45:39;;;;;;;10.95;8.23;;;14.70;74.50;;;;;;5031644;28;20060;-62
2022/04/22 04:48:05;;;;;;;8.63;7.75;;;14.80;74.30;;;;;;5032643;28;20033;-65
2022/04/22 04:50:33;;;;;;;8.65;7.82;;;14.70;74.50;;;;;;5031767;28;20378;-71
2022/04/22 04:52:59;;;;;;;8.77;7.75;;;14.70;74.90;;;;;;5031968;28;20029;-71
2022/04/22 04:55:26;;;;;;;10.48;8.18;;;14.90;74.00;;;;;;5032623;28;20038;-70
2022/04/22 04:57:51;;;;;;;9.10;7.95;;;15.00;73.50;;;;;;5032624;28;20029;-63
2022/04/22 05:00:20;;;;;;;9.88;8.85;;;15.10;73.00;;;;;;5031888;28;20025;-63
2022/04/22 05:02:46;;;;;;;11.25;8.77;;;15.20;72.80;;;;;;5026591;28;20109;-71
2022/04/22 05:05:12;;;;;;;9.32;8.40;;;15.30;72.10;;;;;;5031747;28;20057;-70
2022/04/22 05:07:49;;;;;;;9.82;8.07;;;15.50;72.10;;;;;;5031972;28;20115;-69
2022/04/22 05:10:17;;;;;;;9.05;8.13;;;15.40;72.20;;;;;;5034787;28;20021;-71
2022/04/22 05:12:46;;;;;;;9.10;8.20;;;15.30;72.60;;;;;;5033649;28;20560;-70
2022/04/22 05:15:12;;;;;;;11.35;9.13;;;15.30;72.30;;;;;;5031656;28;20025;-60
2022/04/22 05:17:40;;;;;;;10.27;7.88;;;15.30;72.40;;;;;;5032187;28;20112;-68
2022/04/22 05:20:06;;;;;;;13.43;8.23;;;15.20;72.80;;;;;;5031613;28;20182;-71
2022/04/22 05:22:32;;;;;;;9.68;8.05;;;15.30;72.30;;;;;;5030850;28;20028;-69
2022/04/22 05:24:57;;;;;;;9.63;8.38;;;15.10;73.10;;;;;;5030319;28;20046;-71
2022/04/22 05:27:23;;;;;;;10.95;8.02;;;15.20;73.00;;;;;;5032463;28;20112;-69
2022/04/22 05:32:39;;;;;;;12.70;9.65;;;15.30;72.80;;;;;;5033188;28;20041;-63
2022/04/22 05:35:09;;;;;;;13.30;10.30;;;15.30;73.30;;;;;;5040500;28;20140;-63
2022/04/22 05:37:52;;;;;;;19.17;10.82;;;15.30;73.50;;;;;;5028090;28;20272;-63
2022/04/22 05:40:20;;;;;;;11.90;10.70;;;15.10;74.10;;;;;;5032723;28;20107;-64
2022/04/22 05:42:46;;;;;;;14.13;10.70;;;15.10;74.60;;;;;;5030177;28;20478;-66
2022/04/22 05:45:14;;;;;;;11.63;10.40;;;15.10;74.50;;;;;;5030930;28;20049;-66
2022/04/22 05:47:41;;;;;;;12.55;10.95;;;15.10;74.90;;;;;;5033085;28;20037;-66
2022/04/22 05:50:08;;;;;;;13.60;12.00;;;15.10;74.70;;;;;;5033158;28;20025;-68
2022/04/22 05:52:35;;;;;;;12.45;11.02;;;15.20;75.10;;;;;;5028903;28;20040;-66
2022/04/22 05:55:03;;;;;;;13.27;11.88;;;15.30;74.80;;;;;;5034878;28;20025;-68
2022/04/22 05:57:32;;;;;;;14.77;11.10;;;15.40;75.30;;;;;;5032644;28;20017;-68
2022/04/22 05:59:59;;;;;;;15.25;11.30;;;15.40;74.40;;;;;;5033235;28;20109;-68
2022/04/22 06:02:25;;;;;;;15.20;12.10;;;15.40;74.30;;;;;;5030676;28;20409;-66
2022/04/22 06:04:51;;;;;;;12.50;11.23;;;15.40;74.10;;;;;;5034285;28;20068;-69
2022/04/22 06:07:17;;;;;;;15.13;12.45;;;15.40;73.80;;;;;;5034840;28;20486;-70
2022/04/22 06:12:27;;;;;;;14.55;10.88;;;15.60;73.80;;;;;;5031222;28;20035;-63
2022/04/22 06:14:53;;;;;;;14.55;11.10;;;15.60;73.60;;;;;;5031137;28;20448;-68
2022/04/22 06:17:19;;;;;;;13.95;11.05;;;15.60;73.30;;;;;;5032333;28;20018;-61
2022/04/22 06:19:45;;;;;;;14.10;11.43;;;15.70;73.50;;;;;;5020532;28;20018;-60
2022/04/22 06:22:10;;;;;;;14.13;11.27;;;15.70;73.20;;;;;;5030243;28;20025;-68
2022/04/22 06:24:36;;;;;;;13.68;12.27;;;15.70;73.20;;;;;;5028950;28;20037;-66
2022/04/22 06:27:01;;;;;;;13.10;11.75;;;15.80;73.10;;;;;;5038009;28;20087;-60
2022/04/22 06:29:27;;;;;;;15.07;12.23;;;15.80;73.00;;;;;;5035987;28;20071;-66
2022/04/22 06:31:53;;;;;;;14.65;11.20;;;15.80;73.10;;;;;;5034427;28;20041;-67
2022/04/22 06:34:19;;;;;;;13.80;12.00;;;15.80;72.90;;;;;;5033797;28;20079;-68
2022/04/22 06:36:45;;;;;;;13.52;11.88;;;15.90;72.90;;;;;;5031060;28;20025;-66
2022/04/22 06:39:13;;;;;;;15.75;12.77;;;15.90;72.70;;;;;;5033554;28;20013;-69
2022/04/22 06:47:09;;;;;;;14.60;11.48;;;15.90;72.60;;;;;;5028556;28;20084;-61
2022/04/22 06:49:34;;;;;;;28.58;13.90;;;15.90;72.50;;;;;;5028043;28;20104;-65
2022/04/22 06:52:01;;;;;;;108.35;26.33;;;15.90;72.50;;;;;;5034067;28;20123;-68
2022/04/22 06:54:27;;;;;;;118.55;26.88;;;15.80;73.00;;;;;;5031366;28;20044;-70
2022/04/22 06:56:53;;;;;;;43.78;16.60;;;15.70;73.50;;;;;;5025595;28;20484;-69
2022/04/22 06:59:21;;;;;;;23.17;14.35;;;15.70;73.60;;;;;;5026270;28;20028;-67
2022/04/22 07:01:48;;;;;;;13.57;12.20;;;15.70;73.80;;;;;;5029105;28;20025;-67
2022/04/22 07:04:14;;;;;;;33.53;15.90;;;15.90;73.30;;;;;;5029966;28;20036;-67
2022/04/22 07:06:42;;;;;;;45.33;16.83;;;16.00;73.10;;;;;;5030444;28;20037;-67
2022/04/22 07:09:10;;;;;;;57.70;17.80;;;16.10;72.60;;;;;;5032741;28;20017;-62
2022/04/22 07:11:38;;;;;;;45.63;17.70;;;16.20;72.10;;;;;;5032352;28;20021;-64
2022/04/22 07:14:04;;;;;;;17.10;12.68;;;16.20;72.10;;;;;;5031855;28;20051;-69
2022/04/22 07:16:30;;;;;;;13.48;12.00;;;16.00;72.70;;;;;;5033401;28;20084;-68
2022/04/22 07:18:57;;;;;;;19.10;13.55;;;15.80;73.20;;;;;;5047904;28;20091;-69
2022/04/22 07:21:24;;;;;;;40.05;15.48;;;15.70;73.20;;;;;;5032923;28;20044;-66
2022/04/22 07:23:50;;;;;;;76.95;22.85;;;15.80;73.80;;;;;;5027468;28;20471;-63
2022/04/22 07:26:18;;;;;;;32.28;15.85;;;15.80;73.80;;;;;;5029660;28;20084;-70
2022/04/22 07:28:47;;;;;;;68.35;19.92;;;15.90;73.80;;;;;;5034967;28;20033;-68
2022/04/22 07:31:16;;;;;;;44.33;16.80;;;15.90;73.40;;;;;;5042030;28;20016;-63
2022/04/22 07:33:42;;;;;;;16.13;12.73;;;16.00;73.20;;;;;;5026768;28;20028;-68
2022/04/22 07:36:08;;;;;;;23.00;13.70;;;16.10;73.20;;;;;;5034859;28;20029;-63
2022/04/22 07:38:34;;;;;;;20.08;12.90;;;16.20;72.90;;;;;;5043523;28;20109;-64
2022/04/22 07:41:00;;;;;;;15.70;13.25;;;16.20;72.70;;;;;;5040123;28;20176;-70
2022/04/22 07:48:56;;;;;;;15.63;13.60;;;16.10;72.70;;;;;;5033518;28;20048;-70
2022/04/22 07:51:25;;;;;;;14.40;12.50;;;16.00;73.40;;;;;;5036560;28;20024;-66
2022/04/22 07:53:51;;;;;;;17.65;14.18;;;16.10;73.00;;;;;;5047153;28;20025;-63
2022/04/22 07:56:17;;;;;;;20.02;14.07;;;16.20;72.90;;;;;;5037830;28;20033;-65
2022/04/22 07:58:42;;;;;;;15.45;13.77;;;16.30;72.80;;;;;;5026531;28;20386;-66
2022/04/22 08:01:08;;;;;;;15.95;13.85;;;16.40;72.50;;;;;;5026848;28;20029;-66
2022/04/22 08:03:36;;;;;;;17.45;14.05;;;15.90;73.10;;;;;;5032361;28;20021;-63
2022/04/22 08:06:02;;;;;;;14.40;12.90;;;15.40;74.90;;;;;;5031889;28;20072;-63
2022/04/22 08:08:30;;;;;;;17.55;13.57;;;15.10;76.30;;;;;;5023702;28;20047;-55
2022/04/22 08:10:56;;;;;;;17.25;12.93;;;15.30;76.20;;;;;;5029765;28;20034;-61
2022/04/22 08:13:21;;;;;;;16.75;13.77;;;15.40;75.00;;;;;;5046527;28;20021;-64
2022/04/22 08:15:47;;;;;;;20.30;14.10;;;15.60;74.80;;;;;;5033134;28;20074;-56
2022/04/22 08:18:13;;;;;;;19.20;13.82;;;15.70;73.80;;;;;;5048890;28;20033;-53
2022/04/22 08:20:38;;;;;;;18.63;15.38;;;15.80;73.40;;;;;;5040804;28;20500;-56
2022/04/22 08:23:05;;;;;;;15.65;13.95;;;15.90;72.90;;;;;;5033362;28;20034;-60
2022/04/22 08:25:31;;;;;;;17.15;13.48;;;15.90;72.80;;;;;;5041622;28;20127;-55
2022/04/22 08:27:56;;;;;;;16.90;14.07;;;15.90;72.80;;;;;;5034445;28;20060;-58
2022/04/22 08:30:23;;;;;;;16.60;14.85;;;16.00;72.40;;;;;;5027981;28;20025;-56
2022/04/22 08:32:49;;;;;;;15.68;14.02;;;16.10;72.30;;;;;;5046223;28;20029;-55
2022/04/22 08:35:14;;;;;;;14.48;13.07;;;16.10;71.80;;;;;;5036928;28;20502;-60
2022/04/22 08:37:44;;;;;;;17.08;14.27;;;16.20;71.90;;;;;;5046372;28;20116;-61
2022/04/22 08:40:10;;;;;;;19.02;15.45;;;16.20;71.60;;;;;;5030930;28;20013;-64
2022/04/22 08:42:38;;;;;;;19.23;14.82;;;16.20;71.80;;;;;;5032523;28;20468;-59
2022/04/22 08:45:06;;;;;;;20.23;15.27;;;16.10;71.50;;;;;;5042821;28;20025;-59
2022/04/22 08:50:17;;;;;;;17.25;15.35;;;16.10;71.70;;;;;;5038822;28;20039;-50
2022/04/22 08:52:49;;;;;;;18.45;15.45;;;16.10;71.80;;;;;;5044963;28;20362;-61
2022/04/22 08:55:17;;;;;;;20.50;16.75;;;16.20;71.90;;;;;;5035387;28;20035;-62
2022/04/22 08:57:43;;;;;;;17.67;15.88;;;16.20;71.70;;;;;;5040153;28;20044;-51
2022/04/22 09:00:09;;;;;;;17.67;15.77;;;16.20;71.80;;;;;;5037654;28;20071;-59
2022/04/22 09:02:34;;;;;;;19.00;16.15;;;16.30;71.70;;;;;;5043739;28;20021;-54
2022/04/22 09:05:00;;;;;;;18.33;16.27;;;16.40;71.40;;;;;;5042082;28;20036;-51
2022/04/22 09:07:28;;;;;;;18.77;15.77;;;16.40;71.20;;;;;;5041814;28;20095;-59
2022/04/22 09:09:54;;;;;;;16.65;14.88;;;16.50;71.00;;;;;;5039834;28;20017;-63
2022/04/22 09:12:25;;;;;;;18.77;15.07;;;16.50;70.40;;;;;;5049255;28;20040;-51
2022/04/22 09:14:53;;;;;;;16.45;14.80;;;16.60;69.70;;;;;;5038343;28;20013;-63
2022/04/22 09:17:26;;;;;;;19.98;15.02;;;16.60;69.80;;;;;;5038077;28;20028;-61
2022/04/22 09:19:53;;;;;;;17.52;14.68;;;16.60;70.00;;;;;;5022909;28;20032;-61
2022/04/22 09:22:24;;;;;;;15.98;14.10;;;16.70;70.20;;;;;;5042068;28;20024;-55
2022/04/22 09:24:56;;;;;;;17.05;13.80;;;16.60;69.80;;;;;;5036456;28;20024;-49
2022/04/22 09:27:32;;;;;;;;;;;16.70;69.80;;;;;;5039555;28;20269;-54
2022/04/22 09:29:59;;;;;;;15.40;13.88;;;16.60;69.30;;;;;;5038773;28;19917;-55
2022/04/22 09:32:26;;;;;;;16.17;14.02;;;16.60;68.70;;;;;;5034777;28;20032;-52
2022/04/22 09:34:56;;;;;;;13.75;12.27;;;16.60;69.20;;;;;;5042093;28;20447;-52
2022/04/22 09:42:57;;;;;;;13.10;11.50;;;16.50;68.10;;;;;;5033714;28;20084;-54
2022/04/22 09:45:38;;;;;;;13.52;11.07;;;16.50;67.80;;;;;;5027526;28;20026;-51
2022/04/22 09:48:15;;;;;;;13.82;10.27;;;16.50;67.80;;;;;;5023376;28;20111;-61
2022/04/22 09:50:43;;;;;;;12.50;10.93;;;16.50;67.50;;;;;;5034211;28;20025;-48
2022/04/22 09:53:10;;;;;;;11.20;9.90;;;16.60;67.50;;;;;;5037519;28;20446;-50
2022/04/22 09:55:46;;;;;;;12.13;10.20;;;16.60;67.40;;;;;;5033868;28;20026;-48
2022/04/22 09:58:11;;;;;;;11.23;9.07;;;16.70;66.70;;;;;;5034167;28;20033;-58
2022/04/22 10:00:37;;;;;;;11.85;9.82;;;16.70;66.90;;;;;;5035129;28;20099;-50
2022/04/22 10:03:04;;;;;;;10.27;9.18;;;16.80;66.90;;;;;;5030636;28;20108;-51
2022/04/22 10:05:33;;;;;;;11.55;9.13;;;16.80;66.60;;;;;;5023437;28;20043;-58
2022/04/22 10:08:02;;;;;;;13.10;8.63;;;16.80;66.10;;;;;;5025121;28;20077;-53
2022/04/22 10:10:35;;;;;;;12.52;8.55;;;16.70;65.80;;;;;;5028930;28;20486;-59
2022/04/22 10:13:03;;;;;;;10.25;8.60;;;16.70;66.00;;;;;;5025809;28;20494;-50
2022/04/22 10:15:31;;;;;;;12.73;8.35;;;16.70;65.90;;;;;;5033158;28;20049;-62
2022/04/22 10:17:59;;;;;;;9.75;8.68;;;16.70;66.00;;;;;;5021823;28;20052;-58
2022/04/22 10:20:26;;;;;;;10.65;9.55;;;16.80;66.30;;;;;;5034690;28;20018;-49
2022/04/22 10:22:51;;;;;;;9.90;8.52;;;16.80;65.80;;;;;;5032788;28;20030;-54
2022/04/22 10:25:17;;;;;;;8.68;7.78;;;16.90;65.30;;;;;;5031252;28;20033;-54
2022/04/22 10:27:44;;;;;;;10.43;8.55;;;16.80;64.70;;;;;;5032576;28;20125;-58
2022/04/22 10:30:11;;;;;;;10.23;8.32;;;16.80;64.60;;;;;;5034182;28;20467;-51
2022/04/22 10:32:41;;;;;;;9.82;8.80;;;16.70;65.00;;;;;;5025496;28;20113;-63
2022/04/22 10:35:08;;;;;;;12.60;9.88;;;16.70;65.50;;;;;;5030888;28;20263;-63
2022/04/22 10:37:38;;;;;;;11.15;10.05;;;16.70;65.70;;;;;;5032104;28;20029;-61
2022/04/22 10:40:04;;;;;;;10.95;9.95;;;16.60;65.70;;;;;;5033066;28;20104;-63
2022/04/22 10:42:35;;;;;;;9.82;8.90;;;16.60;66.00;;;;;;5030813;28;20021;-49
2022/04/22 10:47:51;;;;;;;11.90;10.05;;;16.50;66.40;;;;;;5024791;28;20044;-47
2022/04/22 10:50:29;;;;;;;12.27;11.07;;;16.50;66.50;;;;;;5026901;28;20022;-52
2022/04/22 10:53:01;;;;;;;12.02;11.02;;;16.50;66.80;;;;;;5014088;28;20025;-54
2022/04/22 10:55:28;;;;;;;12.40;11.30;;;16.60;67.10;;;;;;5019342;28;20036;-53
2022/04/22 10:58:13;;;;;;;13.25;11.18;;;16.60;67.10;;;;;;5030645;28;20018;-51
2022/04/22 11:00:43;;;;;;;13.02;11.75;;;16.70;67.10;;;;;;5032378;28;20386;-63
2022/04/22 11:03:31;;;;;;;13.40;12.00;;;16.80;67.20;;;;;;5027508;28;20116;-55
2022/04/22 11:06:06;;;;;;;14.60;13.20;;;16.80;67.30;;;;;;5032289;28;20049;-63
2022/04/22 11:08:37;;;;;;;14.30;12.85;;;16.80;67.20;;;;;;5033422;28;20112;-59
2022/04/22 11:11:13;;;;;;;15.35;13.88;;;16.80;67.40;;;;;;5032896;28;20506;-65
2022/04/22 11:13:51;;;;;;;14.15;12.85;;;16.80;67.40;;;;;;5029150;28;20033;-58
2022/04/22 11:16:19;;;;;;;16.48;12.88;;;16.80;67.60;;;;;;5023810;28;20030;-63
2022/04/22 11:19:09;;;;;;;13.88;12.60;;;16.80;67.60;;;;;;5027705;28;20025;-58
2022/04/22 11:21:37;;;;;;;11.98;10.77;;;16.80;67.60;;;;;;5029262;28;20029;-56
2022/04/22 11:24:33;;;;;;;12.50;11.27;;;16.80;67.20;;;;;;5031484;28;20025;-62
2022/04/22 11:27:08;;;;;;;12.43;11.13;;;16.80;67.10;;;;;;5027152;28;20049;-60
2022/04/22 11:29:33;;;;;;;9.90;9.02;;;16.80;67.10;;;;;;5032013;28;20037;-61
2022/04/22 11:32:20;;;;;;;13.20;10.10;;;16.70;66.50;;;;;;5031297;28;20080;-56
2022/04/22 11:34:46;;;;;;;11.48;9.18;;;16.70;65.70;;;;;;5030868;28;20026;-58
2022/04/22 11:37:20;;;;;;;9.45;8.32;;;16.70;66.00;;;;;;5031173;28;20041;-59
2022/04/22 11:39:47;;;;;;;9.50;8.02;;;16.60;65.00;;;;;;5030362;28;20029;-63
2022/04/22 11:42:15;;;;;;;11.43;8.73;;;16.70;65.20;;;;;;5030076;28;20030;-56
2022/04/22 11:44:41;;;;;;;9.73;8.73;;;16.70;65.20;;;;;;5022085;28;20052;-59
2022/04/22 11:47:07;;;;;;;10.07;8.80;;;16.70;64.80;;;;;;5029861;28;20474;-60
2022/04/22 11:49:32;;;;;;;10.43;8.50;;;16.70;65.10;;;;;;5031164;28;20164;-63
2022/04/22 11:52:00;;;;;;;9.85;8.80;;;16.70;65.10;;;;;;5025819;28;20029;-62
2022/04/22 11:54:26;;;;;;;10.82;9.52;;;16.60;65.30;;;;;;5023800;28;20029;-64
2022/04/22 11:56:52;;;;;;;10.93;9.88;;;16.70;65.60;;;;;;5015108;28;20034;-64
2022/04/22 11:59:24;;;;;;;10.65;9.57;;;16.70;65.60;;;;;;5030961;28;20033;-64
2022/04/22 12:10:06;;;;;;;11.93;9.95;;;16.80;66.20;;;;;;5031258;28;20049;-60
2022/04/22 12:12:32;;;;;;;11.90;10.80;;;16.80;66.40;;;;;;5026184;28;20024;-64
2022/04/22 12:15:03;;;;;;;11.35;10.25;;;16.80;66.60;;;;;;5028702;28;20356;-57
2022/04/22 12:17:29;;;;;;;11.82;10.73;;;16.90;66.90;;;;;;5024252;28;20467;-63
2022/04/22 12:19:55;;;;;;;13.90;11.48;;;16.90;66.90;;;;;;5026324;28;20104;-63
2022/04/22 12:22:24;;;;;;;12.68;11.68;;;16.90;66.90;;;;;;5028984;28;20420;-57
2022/04/22 12:25:23;;;;;;;12.65;11.65;;;16.90;67.00;;;;;;5031322;28;20269;-55
2022/04/22 12:28:08;;;;;;;16.45;13.38;;;16.80;67.10;;;;;;5029349;28;20100;-60
2022/04/22 12:30:37;;;;;;;15.98;12.75;;;16.70;67.70;;;;;;5026928;28;20075;-63
2022/04/22 12:33:03;;;;;;;13.90;12.25;;;16.80;67.80;;;;;;5032220;28;20115;-50
2022/04/22 12:35:28;;;;;;;13.57;12.27;;;16.80;67.80;;;;;;5030923;28;20022;-52
2022/04/22 12:37:56;;;;;;;13.55;12.32;;;16.90;67.90;;;;;;5035725;28;20103;-54
2022/04/22 12:40:22;;;;;;;13.35;12.25;;;17.00;67.70;;;;;;5037010;28;20040;-62
2022/04/22 12:42:50;;;;;;;13.00;11.90;;;17.00;67.20;;;;;;5029186;28;20099;-63
2022/04/22 12:53:42;;;;;;;13.23;11.82;;;17.10;65.70;;;;;;5039576;28;20097;-54
2022/04/22 12:56:09;;;;;;;13.02;11.55;;;17.10;65.60;;;;;;5027727;28;20034;-55
2022/04/22 12:58:52;;;;;;;13.50;12.27;;;17.10;65.10;;;;;;5029389;28;20022;-62
2022/04/22 13:01:20;;;;;;;12.93;11.35;;;17.10;65.60;;;;;;5032404;28;20029;-63
2022/04/22 13:03:46;;;;;;;12.60;11.40;;;17.10;65.60;;;;;;5029463;28;20022;-63
2022/04/22 13:06:14;;;;;;;13.65;12.45;;;17.10;65.90;;;;;;5025988;28;20040;-57
2022/04/22 13:08:40;;;;;;;13.77;12.57;;;17.10;65.80;;;;;;5031127;28;20503;-60
2022/04/22 13:11:08;;;;;;;13.73;12.43;;;17.20;65.90;;;;;;5036719;28;20099;-63
2022/04/22 13:13:33;;;;;;;13.77;12.48;;;17.10;66.10;;;;;;5029753;28;20036;-58
2022/04/22 13:15:59;;;;;;;12.77;11.50;;;17.20;66.20;;;;;;5034011;28;20104;-62
2022/04/22 13:18:25;;;;;;;12.88;11.68;;;17.20;66.20;;;;;;5040652;28;20064;-63
2022/04/22 13:20:52;;;;;;;12.45;11.25;;;17.20;65.60;;;;;;5030157;28;20021;-63
2022/04/22 13:23:17;;;;;;;12.77;11.48;;;17.30;65.80;;;;;;5021300;28;20628;-63
2022/04/22 13:25:43;;;;;;;13.52;12.25;;;17.30;65.50;;;;;;5027399;28;20494;-63
2022/04/22 13:28:10;;;;;;;12.52;11.30;;;17.40;65.70;;;;;;5024517;28;20059;-63
2022/04/22 13:30:35;;;;;;;11.68;10.60;;;17.40;66.10;;;;;;5033446;28;20510;-63
2022/04/22 13:33:01;;;;;;;13.40;10.98;;;17.40;65.70;;;;;;5033204;28;20061;-54
2022/04/22 13:35:27;;;;;;;11.75;10.68;;;17.50;65.30;;;;;;5033957;28;20052;-58
2022/04/22 13:37:53;;;;;;;12.65;11.55;;;17.50;65.00;;;;;;5034942;28;20500;-62
2022/04/22 13:40:19;;;;;;;12.50;11.30;;;17.40;65.10;;;;;;5033827;28;20049;-60
2022/04/22 13:42:46;;;;;;;11.35;10.35;;;17.30;65.60;;;;;;5028336;28;20021;-63
2022/04/22 13:53:23;;;;;;;11.80;10.63;;;17.50;65.30;;;;;;5033202;28;20124;-62